createdAt,value
2022-09-27T00:04:51.812Z,97696.35
2022-09-27T00:14:24.742Z,97694.20
2022-09-27T00:23:57.059Z,97706.34
2022-09-27T00:33:32.485Z,97708.69
2022-09-27T00:43:05.108Z,97704.03
2022-09-27T00:52:39.249Z,97696.70
2022-09-27T01:02:14.902Z,97691.26
2022-09-27T01:11:49.116Z,97695.37
2022-09-27T01:21:21.494Z,97689.90
2022-09-27T01:30:55.594Z,97687.72
2022-09-27T01:40:31.426Z,97688.31
2022-09-27T01:50:04.853Z,97684.63
2022-09-27T01:59:39.683Z,97688.39
2022-09-27T02:09:11.917Z,97684.48
2022-09-27T02:18:45.958Z,97682.45
2022-09-27T02:28:20.131Z,97682.33
2022-09-27T02:37:54.180Z,97694.98
2022-09-27T02:47:28.219Z,97711.27
2022-09-27T02:57:04.079Z,97731.06
2022-09-27T03:06:36.454Z,97754.77
2022-09-27T03:16:10.573Z,97767.20
2022-09-27T03:25:46.036Z,97775.81
2022-09-27T03:35:18.502Z,97780.24
2022-09-27T03:44:54.087Z,97784.44
2022-09-27T03:54:26.366Z,97784.44
2022-09-27T04:04:01.896Z,97784.06
2022-09-27T04:13:36.105Z,97788.19
2022-09-27T04:23:08.226Z,97795.61
2022-09-27T04:32:43.814Z,97811.13
2022-09-27T04:42:17.909Z,97816.13
2022-09-27T04:51:49.873Z,97817.75
2022-09-27T05:01:23.513Z,97823.17
2022-09-27T05:10:59.149Z,97823.15
2022-09-27T05:20:31.291Z,97826.48
2022-09-27T05:30:05.590Z,97845.84
2022-09-27T05:39:39.733Z,97859.02
2022-09-27T05:49:14.506Z,97872.39
2022-09-27T05:58:47.946Z,97893.73
2022-09-27T06:08:21.986Z,97904.31
2022-09-27T06:17:56.176Z,97920.05
2022-09-27T06:27:30.294Z,97930.19
2022-09-27T06:37:06.396Z,97939.00
2022-09-27T06:46:38.886Z,97955.11
2022-09-27T06:56:13.650Z,97971.88
2022-09-27T07:05:47.130Z,97979.23
2022-09-27T07:15:23.401Z,97997.03
2022-09-27T07:24:55.964Z,98003.46
2022-09-27T07:34:31.601Z,98013.74
2022-09-27T07:44:05.311Z,98004.42
2022-09-27T07:53:39.355Z,98002.41
2022-09-27T08:03:13.149Z,98018.12
2022-09-27T08:12:46.274Z,98033.13
2022-09-27T08:22:20.864Z,98037.41
2022-09-27T08:23:23.327Z,98039.94
2022-09-27T08:24:25.893Z,98043.36
2022-09-27T08:25:29.950Z,98044.88
2022-09-27T08:35:01.643Z,98059.84
2022-09-27T08:36:04.239Z,98051.44
2022-09-27T08:37:06.698Z,98054.30
2022-09-27T08:38:09.110Z,98049.63
2022-09-27T08:39:11.674Z,98047.48
2022-09-27T08:40:14.053Z,98057.28
2022-09-27T08:41:16.551Z,98057.48
2022-09-27T08:42:18.983Z,98055.61
2022-09-27T08:43:23.085Z,98060.15
2022-09-27T08:44:27.044Z,98055.47
2022-09-27T08:45:31.050Z,98058.64
2022-09-27T08:46:35.091Z,98053.57
2022-09-27T08:56:07.899Z,98058.52
2022-09-27T08:57:11.976Z,98057.09
2022-09-27T08:58:14.326Z,98054.27
2022-09-27T08:59:16.832Z,98060.02
2022-09-27T09:00:19.332Z,98060.16
2022-09-27T09:01:27.991Z,98063.58
2022-09-27T09:02:27.425Z,98059.81
2022-09-27T09:03:29.689Z,98062.72
2022-09-27T09:04:32.180Z,98057.71
2022-09-27T09:05:34.639Z,98055.09
2022-09-27T09:06:37.048Z,98058.83
2022-09-27T09:07:41.164Z,98058.23
2022-09-27T09:08:46.343Z,98057.75
2022-09-27T09:09:47.510Z,98052.14
2022-09-27T09:10:51.395Z,98055.66
2022-09-27T09:11:55.322Z,98055.49
2022-09-27T09:12:57.831Z,98055.63
2022-09-27T09:14:00.296Z,98052.77
2022-09-27T09:15:04.340Z,98046.36
2022-09-27T09:16:08.225Z,98056.17
2022-09-27T09:17:10.548Z,98053.27
2022-09-27T09:18:13.001Z,98056.92
2022-09-27T09:19:15.494Z,98055.60
2022-09-27T09:20:17.917Z,98059.67
2022-09-27T09:21:20.412Z,98059.75
2022-09-27T09:22:22.838Z,98063.20
2022-09-27T09:23:26.913Z,98066.48
2022-09-27T09:24:30.834Z,98064.67
2022-09-27T09:25:33.194Z,98063.08
2022-09-27T09:26:35.623Z,98062.84
2022-09-27T09:27:38.057Z,98064.83
2022-09-27T09:28:40.503Z,98061.62
2022-09-27T09:29:42.916Z,98061.28
2022-09-27T09:30:45.363Z,98069.02
2022-09-27T09:31:47.888Z,98064.38
2022-09-27T09:32:51.898Z,98065.50
2022-09-27T09:33:55.821Z,98066.03
2022-09-27T09:34:58.139Z,98063.17
2022-09-27T09:36:00.572Z,98055.78
2022-09-27T09:37:03.000Z,98068.09
2022-09-27T09:38:05.420Z,98059.10
2022-09-27T09:39:09.439Z,98059.66
2022-09-27T09:40:11.739Z,98052.14
2022-09-27T09:41:14.203Z,98054.05
2022-09-27T09:42:16.673Z,98056.86
2022-09-27T09:43:19.076Z,98055.95
2022-09-27T09:44:23.192Z,98058.20
2022-09-27T09:45:27.161Z,98051.11
2022-09-27T09:46:31.195Z,98059.59
2022-09-27T09:47:33.375Z,98060.08
2022-09-27T09:48:37.425Z,98053.41
2022-09-27T09:49:39.734Z,98052.98
2022-09-27T09:50:42.171Z,98054.74
2022-09-27T09:51:46.242Z,98058.65
2022-09-27T09:52:48.578Z,98057.69
2022-09-27T09:53:52.600Z,98053.22
2022-09-27T09:54:54.923Z,98058.67
2022-09-27T09:55:57.368Z,98061.28
2022-09-27T09:56:59.891Z,98066.20
2022-09-27T09:58:02.174Z,98059.73
2022-09-27T09:59:06.311Z,98063.38
2022-09-27T10:00:10.420Z,98055.21
2022-09-27T10:01:12.830Z,98061.44
2022-09-27T10:02:16.331Z,98061.93
2022-09-27T10:03:19.763Z,98063.11
2022-09-27T10:04:25.000Z,98063.26
2022-09-27T10:05:27.144Z,98060.52
2022-09-27T10:06:29.594Z,98060.81
2022-09-27T10:07:32.042Z,98055.90
2022-09-27T10:08:34.627Z,98065.54
2022-09-27T10:09:38.678Z,98057.56
2022-09-27T10:10:41.081Z,98060.09
2022-09-27T10:11:43.417Z,98059.66
2022-09-27T10:12:45.853Z,98063.79
2022-09-27T10:13:49.366Z,98062.41
2022-09-27T10:14:51.698Z,98059.98
2022-09-27T10:15:54.124Z,98059.34
2022-09-27T10:16:58.193Z,98061.48
2022-09-27T10:18:00.548Z,98056.34
2022-09-27T10:19:03.391Z,98054.31
2022-09-27T10:20:05.705Z,98056.24
2022-09-27T10:21:08.177Z,98052.90
2022-09-27T10:22:10.873Z,98045.03
2022-09-27T10:23:14.987Z,98050.37
2022-09-27T10:24:18.950Z,98043.02
2022-09-27T10:25:22.252Z,98049.34
2022-09-27T10:26:26.202Z,98048.33
2022-09-27T10:27:30.172Z,98042.28
2022-09-27T10:28:34.102Z,98044.22
2022-09-27T10:29:37.800Z,98042.48
2022-09-27T10:30:38.901Z,98045.45
2022-09-27T10:31:41.420Z,98049.34
2022-09-27T10:32:45.350Z,98048.25
2022-09-27T10:33:49.251Z,98044.95
2022-09-27T10:34:51.557Z,98043.02
2022-09-27T10:35:53.985Z,98044.86
2022-09-27T10:37:01.292Z,98046.05
2022-09-27T10:38:07.403Z,98050.26
2022-09-27T10:39:10.627Z,98041.89
2022-09-27T10:40:14.019Z,98043.18
2022-09-27T10:41:17.928Z,98046.27
2022-09-27T10:42:21.860Z,98045.48
2022-09-27T10:43:27.466Z,98040.95
2022-09-27T10:44:26.644Z,98032.43
2022-09-27T10:45:29.114Z,98038.91
2022-09-27T10:46:33.083Z,98035.97
2022-09-27T10:47:35.392Z,98030.77
2022-09-27T10:48:37.817Z,98034.00
2022-09-27T10:49:41.898Z,98035.83
2022-09-27T10:50:50.800Z,98035.47
2022-09-27T10:51:46.692Z,98031.38
2022-09-27T10:52:49.137Z,98032.88
2022-09-27T10:53:53.194Z,98029.40
2022-09-27T10:54:55.473Z,98022.39
2022-09-27T10:55:57.971Z,98019.77
2022-09-27T10:57:02.050Z,98023.73
2022-09-27T10:58:04.433Z,98032.88
2022-09-27T10:59:06.872Z,98028.12
2022-09-27T11:00:09.362Z,98023.00
2022-09-27T11:01:11.918Z,98025.91
2022-09-27T11:02:14.321Z,98027.84
2022-09-27T11:03:17.004Z,98024.24
2022-09-27T11:04:19.576Z,98017.01
2022-09-27T11:05:21.871Z,98018.09
2022-09-27T11:06:26.006Z,98017.45
2022-09-27T11:15:59.055Z,98015.93
2022-09-27T11:17:02.973Z,98017.55
2022-09-27T11:18:05.250Z,98016.74
2022-09-27T11:19:13.255Z,98020.15
2022-09-27T11:20:13.238Z,98019.00
2022-09-27T11:21:15.625Z,98010.23
2022-09-27T11:22:18.016Z,98013.66
2022-09-27T11:23:22.198Z,98008.06
2022-09-27T11:24:24.425Z,98007.68
2022-09-27T11:25:31.058Z,98012.20
2022-09-27T11:26:33.094Z,98013.27
2022-09-27T11:27:35.502Z,98014.70
2022-09-27T11:28:37.900Z,98010.00
2022-09-27T11:29:40.334Z,98008.08
2022-09-27T11:30:44.445Z,98002.50
2022-09-27T11:31:46.970Z,98007.11
2022-09-27T11:32:49.737Z,98003.67
2022-09-27T11:33:53.370Z,98006.84
2022-09-27T11:34:58.648Z,98000.02
2022-09-27T11:36:01.122Z,98003.60
2022-09-27T11:37:03.964Z,98001.82
2022-09-27T11:38:08.130Z,97998.51
2022-09-27T11:39:12.638Z,97997.58
2022-09-27T11:40:17.747Z,98002.44
2022-09-27T11:41:20.331Z,97998.44
2022-09-27T11:42:22.932Z,98000.41
2022-09-27T11:43:26.470Z,97998.70
2022-09-27T11:44:29.334Z,97994.76
2022-09-27T11:46:41.518Z,97995.70
2022-09-27T11:48:54.772Z,97993.93
2022-09-27T11:49:57.222Z,97993.39
2022-09-27T11:51:00.038Z,97992.55
2022-09-27T11:52:02.789Z,97992.72
2022-09-27T11:53:05.978Z,97985.92
2022-09-27T11:54:08.801Z,97983.80
2022-09-27T11:55:11.362Z,97982.30
2022-09-27T11:56:14.264Z,97984.67
2022-09-27T11:57:17.202Z,97980.33
2022-09-27T11:58:21.856Z,97981.55
2022-09-27T11:59:25.002Z,97974.88
2022-09-27T12:00:28.676Z,97976.38
2022-09-27T12:01:31.634Z,97972.02
2022-09-27T12:02:34.648Z,97968.84
2022-09-27T12:03:37.270Z,97971.21
2022-09-27T12:04:43.237Z,97972.64
2022-09-27T12:05:57.641Z,97969.87
2022-09-27T12:06:52.148Z,97973.77
2022-09-27T12:07:56.149Z,97971.88
2022-09-27T12:08:58.504Z,97971.24
2022-09-27T12:10:00.934Z,97972.31
2022-09-27T12:11:04.995Z,97974.11
2022-09-27T12:12:08.924Z,97972.08
2022-09-27T12:13:12.215Z,97970.50
2022-09-27T12:14:14.646Z,97970.88
2022-09-27T12:15:17.070Z,97976.13
2022-09-27T12:16:20.606Z,97978.15
2022-09-27T12:17:23.016Z,97979.66
2022-09-27T12:18:25.432Z,97987.61
2022-09-27T12:19:29.500Z,97977.30
2022-09-27T12:20:33.442Z,97978.97
2022-09-27T12:21:35.731Z,97980.39
2022-09-27T12:22:57.917Z,97980.79
2022-09-27T12:23:42.091Z,97976.69
2022-09-27T12:24:44.639Z,97981.59
2022-09-27T12:25:47.041Z,97986.36
2022-09-27T12:26:51.071Z,97992.50
2022-09-27T12:27:53.375Z,97997.08
2022-09-27T12:28:55.896Z,98004.02
2022-09-27T12:29:58.232Z,98014.70
2022-09-27T12:31:27.279Z,98005.69
2022-09-27T12:32:04.613Z,98010.57
2022-09-27T12:33:06.965Z,97999.53
2022-09-27T12:34:09.387Z,98000.30
2022-09-27T12:35:11.835Z,98005.11
2022-09-27T12:36:15.909Z,98001.59
2022-09-27T12:37:19.789Z,98007.30
2022-09-27T12:38:22.102Z,98009.63
2022-09-27T12:39:26.060Z,98017.28
2022-09-27T12:40:30.010Z,98018.70
2022-09-27T12:41:32.335Z,98017.14
2022-09-27T12:43:43.747Z,97998.02
2022-09-27T12:44:48.974Z,98002.52
2022-09-27T12:45:48.933Z,98006.16
2022-09-27T12:46:51.427Z,98003.31
2022-09-27T12:47:55.433Z,98003.73
2022-09-27T12:48:57.743Z,98002.88
2022-09-27T12:50:02.182Z,98005.23
2022-09-27T12:51:05.704Z,98004.44
2022-09-27T12:52:07.981Z,98003.94
2022-09-27T12:53:10.414Z,98003.08
2022-09-27T12:54:12.928Z,98000.38
2022-09-27T12:55:15.362Z,98005.30
2022-09-27T12:56:17.836Z,98007.67
2022-09-27T12:57:20.244Z,98007.64
2022-09-27T12:58:24.316Z,98005.25
2022-09-27T12:59:27.562Z,98006.14
2022-09-27T13:00:29.907Z,98010.73
2022-09-27T13:01:34.049Z,98003.61
2022-09-27T13:02:39.143Z,98012.48
2022-09-27T13:03:38.674Z,98006.70
2022-09-27T13:04:42.758Z,98008.70
2022-09-27T13:05:46.778Z,98000.55
2022-09-27T13:06:49.093Z,98004.14
2022-09-27T13:07:53.110Z,97998.21
2022-09-27T13:08:57.020Z,98004.74
2022-09-27T13:09:59.602Z,98002.38
2022-09-27T13:11:01.979Z,98003.39
2022-09-27T13:12:04.455Z,98002.74
2022-09-27T13:13:06.931Z,98002.09
2022-09-27T13:14:10.961Z,97998.72
2022-09-27T13:15:14.962Z,97997.36
2022-09-27T13:16:17.579Z,98001.06
2022-09-27T13:17:19.845Z,98000.69
2022-09-27T13:18:23.872Z,97996.31
2022-09-27T13:19:27.950Z,97992.86
2022-09-27T13:20:30.258Z,97990.08
2022-09-27T13:21:32.695Z,97992.45
2022-09-27T13:22:35.166Z,97986.57
2022-09-27T13:23:37.725Z,97982.84
2022-09-27T13:24:41.716Z,97985.45
2022-09-27T13:25:44.059Z,97978.25
2022-09-27T13:26:46.662Z,97984.85
2022-09-27T13:27:49.157Z,97976.84
2022-09-27T13:28:53.147Z,97982.39
2022-09-27T13:29:55.504Z,97978.75
2022-09-27T13:30:59.674Z,97977.69
2022-09-27T13:32:01.919Z,97970.73
2022-09-27T13:33:04.657Z,97971.69
2022-09-27T13:34:08.807Z,97970.06
2022-09-27T13:35:12.924Z,97967.55
2022-09-27T13:36:15.219Z,97967.08
2022-09-27T13:37:17.715Z,97973.16
2022-09-27T13:38:20.146Z,97970.23
2022-09-27T13:39:22.625Z,97965.61
2022-09-27T13:40:25.102Z,97963.22
2022-09-27T13:41:29.184Z,97959.51
2022-09-27T13:42:31.638Z,97964.75
2022-09-27T13:43:34.050Z,97966.17
2022-09-27T13:44:36.498Z,97961.63
2022-09-27T13:45:38.955Z,97954.91
2022-09-27T13:46:43.047Z,97959.72
2022-09-27T13:47:45.344Z,97960.91
2022-09-27T13:48:47.781Z,97964.41
2022-09-27T13:49:50.253Z,97966.09
2022-09-27T13:50:52.756Z,97958.20
2022-09-27T13:51:56.839Z,97960.23
2022-09-27T13:52:59.283Z,97958.17
2022-09-27T13:54:02.476Z,97962.28
2022-09-27T13:55:04.245Z,97962.19
2022-09-27T13:56:08.351Z,97961.72
2022-09-27T13:57:10.750Z,97958.27
2022-09-27T13:58:13.269Z,97956.15
2022-09-27T13:59:15.839Z,97959.98
2022-09-27T14:00:18.293Z,97962.97
2022-09-27T14:01:20.768Z,97961.79
2022-09-27T14:02:23.390Z,97957.97
2022-09-27T14:03:26.011Z,97959.08
2022-09-27T14:04:28.334Z,97962.61
2022-09-27T14:05:30.868Z,97961.75
2022-09-27T14:06:33.305Z,97952.40
2022-09-27T14:07:35.936Z,97955.41
2022-09-27T14:08:38.331Z,97953.23
2022-09-27T14:09:42.321Z,97954.28
2022-09-27T14:10:44.664Z,97956.15
2022-09-27T14:11:47.156Z,97958.31
2022-09-27T14:12:49.570Z,97956.16
2022-09-27T14:13:53.610Z,97952.88
2022-09-27T14:14:55.991Z,97955.55
2022-09-27T14:15:58.460Z,97959.56
2022-09-27T14:17:04.509Z,97959.42
2022-09-27T14:18:06.338Z,97961.47
2022-09-27T14:19:08.818Z,97975.70
2022-09-27T14:20:11.189Z,97971.77
2022-09-27T14:21:13.713Z,97973.91
2022-09-27T14:22:16.175Z,97976.32
2022-09-27T14:23:18.621Z,97984.44
2022-09-27T14:24:21.319Z,97982.85
2022-09-27T14:25:25.332Z,97982.38
2022-09-27T14:26:27.717Z,97987.61
2022-09-27T14:27:30.177Z,97985.84
2022-09-27T14:28:32.623Z,97986.48
2022-09-27T14:29:35.155Z,97986.12
2022-09-27T14:30:37.529Z,97987.75
2022-09-27T14:31:40.039Z,97986.41
2022-09-27T14:32:42.399Z,97991.57
2022-09-27T14:33:44.854Z,97983.94
2022-09-27T14:34:48.976Z,97985.53
2022-09-27T14:35:52.927Z,97987.54
2022-09-27T14:36:56.848Z,97983.28
2022-09-27T14:38:00.702Z,97985.54
2022-09-27T14:39:03.113Z,97979.72
2022-09-27T14:40:06.972Z,97982.33
2022-09-27T14:41:09.362Z,97988.48
2022-09-27T14:42:11.656Z,97980.47
2022-09-27T14:43:14.091Z,97985.39
2022-09-27T14:44:16.548Z,97981.34
2022-09-27T14:45:18.987Z,97987.90
2022-09-27T14:46:23.033Z,97989.63
2022-09-27T14:47:26.882Z,97991.89
2022-09-27T14:48:29.239Z,97989.81
2022-09-27T14:49:31.635Z,97987.77
2022-09-27T14:50:34.118Z,97989.64
2022-09-27T14:51:38.180Z,97992.44
2022-09-27T14:52:40.523Z,97982.57
2022-09-27T14:53:42.978Z,97983.91
2022-09-27T14:54:45.365Z,97994.44
2022-09-27T14:55:47.997Z,97993.03
2022-09-27T14:56:53.510Z,97993.20
2022-09-27T14:57:54.425Z,97999.89
2022-09-27T14:58:57.573Z,98001.12
2022-09-27T15:00:00.305Z,97999.05
2022-09-27T15:01:02.697Z,97997.51
2022-09-27T15:02:06.666Z,97992.91
2022-09-27T15:03:09.139Z,97992.11
2022-09-27T15:04:11.576Z,97987.30
2022-09-27T15:05:13.880Z,97991.88
2022-09-27T15:06:16.281Z,97994.63
2022-09-27T15:07:18.715Z,97990.20
2022-09-27T15:08:22.715Z,97986.08
2022-09-27T15:09:29.730Z,97985.59
2022-09-27T15:10:28.871Z,97983.05
2022-09-27T15:11:31.393Z,97977.05
2022-09-27T15:12:33.789Z,97969.86
2022-09-27T15:13:36.212Z,97973.11
2022-09-27T15:14:40.420Z,97977.27
2022-09-27T15:15:42.639Z,97978.35
2022-09-27T15:16:46.630Z,97975.48
2022-09-27T15:17:48.949Z,97976.93
2022-09-27T15:18:51.343Z,97975.00
2022-09-27T15:19:59.759Z,97983.08
2022-09-27T15:21:01.835Z,97992.30
2022-09-27T15:22:04.244Z,97991.98
2022-09-27T15:23:06.676Z,97991.91
2022-09-27T15:24:10.682Z,97989.84
2022-09-27T15:25:16.029Z,97994.94
2022-09-27T15:26:15.534Z,97992.34
2022-09-27T15:27:17.983Z,97993.95
2022-09-27T15:28:20.430Z,97990.36
2022-09-27T15:29:24.463Z,97992.72
2022-09-27T15:30:29.784Z,97990.64
2022-09-27T15:31:29.294Z,97990.09
2022-09-27T15:32:31.678Z,97997.72
2022-09-27T15:33:35.689Z,97993.42
2022-09-27T15:34:37.986Z,97998.58
2022-09-27T15:35:40.427Z,98001.34
2022-09-27T15:36:44.457Z,97996.08
2022-09-27T15:37:46.982Z,97997.82
2022-09-27T15:38:49.415Z,98001.80
2022-09-27T15:39:51.916Z,97997.96
2022-09-27T15:40:54.362Z,98000.11
2022-09-27T15:41:58.346Z,98000.86
2022-09-27T15:43:00.642Z,97999.66
2022-09-27T15:44:04.704Z,97999.55
2022-09-27T15:45:07.019Z,97995.23
2022-09-27T15:46:09.453Z,97998.20
2022-09-27T15:47:11.879Z,97994.33
2022-09-27T15:48:14.249Z,97997.10
2022-09-27T15:49:16.817Z,97998.47
2022-09-27T15:50:19.137Z,97999.33
2022-09-27T15:51:21.594Z,98001.03
2022-09-27T15:52:25.654Z,97999.98
2022-09-27T15:53:29.557Z,97999.97
2022-09-27T15:54:31.867Z,97998.00
2022-09-27T15:55:34.274Z,98002.75
2022-09-27T15:56:36.772Z,98003.64
2022-09-27T15:57:40.809Z,98003.16
2022-09-27T15:58:43.102Z,97998.39
2022-09-27T15:59:45.574Z,98006.23
2022-09-27T16:00:48.039Z,98003.94
2022-09-27T16:01:50.537Z,98006.67
2022-09-27T16:02:52.878Z,98009.89
2022-09-27T16:03:56.309Z,98010.91
2022-09-27T16:05:00.387Z,98005.86
2022-09-27T16:06:04.337Z,98012.59
2022-09-27T16:07:06.617Z,98016.33
2022-09-27T16:08:09.079Z,98016.95
2022-09-27T16:09:11.559Z,98014.78
2022-09-27T16:10:13.914Z,98014.56
2022-09-27T16:11:17.969Z,98009.22
2022-09-27T16:12:20.327Z,98015.02
2022-09-27T16:13:26.857Z,98014.91
2022-09-27T16:14:28.309Z,98018.45
2022-09-27T16:15:30.631Z,98017.11
2022-09-27T16:16:33.139Z,98020.55
2022-09-27T16:17:37.123Z,98017.39
2022-09-27T16:18:41.500Z,98021.94
2022-09-27T16:19:43.877Z,98027.30
2022-09-27T16:20:46.363Z,98024.88
2022-09-27T16:21:50.303Z,98025.61
2022-09-27T16:22:54.292Z,98025.01
2022-09-27T16:23:56.653Z,98027.00
2022-09-27T16:25:01.648Z,98028.58
2022-09-27T16:26:05.505Z,98028.84
2022-09-27T16:27:09.383Z,98026.27
2022-09-27T16:28:11.674Z,98029.84
2022-09-27T16:29:14.164Z,98030.16
2022-09-27T16:30:16.596Z,98032.54
2022-09-27T16:31:19.011Z,98033.19
2022-09-27T16:32:22.416Z,98031.94
2022-09-27T16:33:26.394Z,98027.91
2022-09-27T16:34:30.406Z,98028.58
2022-09-27T16:35:32.847Z,98032.77
2022-09-27T16:36:35.451Z,98024.40
2022-09-27T16:37:37.871Z,98026.63
2022-09-27T16:38:41.930Z,98026.52
2022-09-27T16:39:44.283Z,98020.42
2022-09-27T16:40:48.424Z,98021.02
2022-09-27T16:41:50.659Z,98021.23
2022-09-27T16:42:54.668Z,98019.56
2022-09-27T16:43:56.946Z,98019.70
2022-09-27T16:44:59.448Z,98017.76
2022-09-27T16:46:01.924Z,98016.68
2022-09-27T16:47:06.029Z,98014.31
2022-09-27T16:48:08.274Z,98013.77
2022-09-27T16:49:12.334Z,98012.54
2022-09-27T16:50:16.325Z,98013.77
2022-09-27T16:51:21.134Z,98018.59
2022-09-27T16:52:21.089Z,98012.20
2022-09-27T16:53:23.513Z,98012.28
2022-09-27T16:54:25.943Z,98013.97
2022-09-27T16:55:28.451Z,98015.61
2022-09-27T16:56:30.906Z,98014.32
2022-09-27T16:57:33.327Z,98019.72
2022-09-27T16:58:37.320Z,98026.59
2022-09-27T16:59:39.630Z,98025.41
2022-09-27T17:00:42.236Z,98026.70
2022-09-27T17:01:44.549Z,98024.63
2022-09-27T17:02:47.041Z,98019.13
2022-09-27T17:03:53.469Z,98022.16
2022-09-27T17:04:53.193Z,98022.84
2022-09-27T17:05:57.248Z,98019.47
2022-09-27T17:07:01.214Z,98024.93
2022-09-27T17:08:03.502Z,98029.13
2022-09-27T17:17:37.239Z,98038.14
2022-09-27T17:18:39.581Z,98039.86
2022-09-27T17:19:43.655Z,98042.45
2022-09-27T17:29:14.453Z,98039.45
2022-09-27T17:38:48.101Z,98044.22
2022-09-27T17:48:21.978Z,98049.83
2022-09-27T17:57:57.294Z,98052.68
2022-09-27T18:07:29.449Z,98056.38
2022-09-27T18:17:04.935Z,98062.80
2022-09-27T18:26:37.236Z,98062.84
2022-09-27T18:36:12.700Z,98074.41
2022-09-27T18:45:46.560Z,98079.53
2022-09-27T18:55:23.319Z,98085.80
2022-09-27T19:04:52.563Z,98081.54
2022-09-27T19:14:26.678Z,98063.16
2022-09-27T19:24:01.929Z,98069.27
2022-09-27T19:33:34.066Z,98072.25
2022-09-27T19:43:09.389Z,98065.48
2022-09-27T19:52:43.384Z,98054.83
2022-09-27T20:02:17.848Z,98053.64
2022-09-27T20:11:49.855Z,98048.13
2022-09-27T20:21:25.610Z,98036.64
2022-09-27T20:30:57.914Z,98019.92
2022-09-27T20:40:33.649Z,98007.30
2022-09-27T20:50:05.735Z,98001.73
2022-09-27T20:59:41.476Z,97989.92
2022-09-27T21:09:15.695Z,97981.44
2022-09-27T21:18:49.437Z,97978.42
2022-09-27T21:28:21.707Z,97965.50
2022-09-27T21:37:55.614Z,97968.44
2022-09-27T21:47:30.911Z,97961.16
2022-09-27T21:57:04.921Z,97947.61
2022-09-27T22:06:37.147Z,97930.30
2022-09-27T22:16:13.424Z,97921.49
2022-09-27T22:25:47.271Z,97894.86
2022-09-27T22:35:21.497Z,97865.75
2022-09-27T22:44:55.466Z,97856.48
2022-09-27T22:54:27.647Z,97835.06
2022-09-27T23:04:01.738Z,97822.30
2022-09-27T23:13:35.420Z,97814.73
2022-09-27T23:23:09.635Z,97809.39
2022-09-27T23:32:43.824Z,97778.88
2022-09-27T23:42:19.240Z,97769.00
2022-09-27T23:51:51.555Z,97752.38
